Data for 07/20/2008

Time Sea-Level Adjusted Pressure Absolute Pressure Temperature Relative Humidity Dew Point   
(mb) (inHg) (mb) (inHg) (C) (F) (%) (C) (F)
00:05 1018 30.06 847 25.01 16 60.7 36 1 33.8
00:10 1018 30.06 847 25.01 15.6 60.1 42 2.8 37.1
00:15 1018 30.06 847 25.01 15.3 59.5 39 1.5 34.7
00:20 1018 30.06 847 25.01 15.3 59.5 38 1.2 34.2
00:25 1018 30.06 847 25.01 15.4 59.8 38 1.2 34.2
00:30 1018 30.06 847 25.01 15.5 59.9 37 0.8 33.5
00:35 1018 30.06 847 25.01 15.6 60.1 38 1.4 34.5
00:40 1018 30.06 847 25.01 15.5 59.9 36 0.6 33
00:45 1018 30.06 847 25.01 16.1 61 33 -0.2 31.6
00:50 1018 30.06 847 25.01 16.5 61.7 33 0.1 32.3
00:55 1018 30.06 847 25.01 16.5 61.6 32 -0 31.9
01:00 1018 30.06 847 25.01 16.1 61 40 2.6 36.7
01:05 1018 30.06 848 25.04 15.1 59.1 42 2.3 36.1
01:10 1018 30.06 848 25.04 14.6 58.3 41 1.7 35.1
01:15 1018 30.06 848 25.04 14.7 58.4 40 1.2 34.1
01:20 1018 30.06 848 25.04 14.8 58.6 39 1.2 34.2
01:25 1018 30.06 848 25.04 14.8 58.7 40 1.4 34.4
01:30 1018 30.06 848 25.04 14.7 58.5 41 1.7 35
01:35 1018 30.06 848 25.04 14.7 58.4 41 1.6 34.8
01:40 1018 30.06 848 25.04 14.6 58.2 41 1.4 34.6
01:45 1018 30.06 848 25.04 14.6 58.2 40 1.2 34.2
01:50 1018 30.06 848 25.04 14.5 58.1 41 1.4 34.4
01:55 1018 30.06 848 25.04 14.4 57.9 42 1.6 34.9
02:00 1018 30.06 848 25.04 14.2 57.5 42 1.7 35
02:05 1018 30.06 848 25.04 14.1 57.4 42 1.4 34.6
02:10 1018 30.06 848 25.04 14.1 57.4 43 1.8 35.2
02:15 1018 30.06 848 25.04 13.9 57 44 1.9 35.4
02:20 1019 30.09 848 25.04 13.8 56.8 44 1.8 35.2
02:25 1018 30.06 848 25.04 13.6 56.4 43 1.4 34.5
02:30 1018 30.06 848 25.04 14 57.2 42 1.3 34.3
02:35 1018 30.06 848 25.04 14 57.2 43 1.7 35
02:40 1018 30.06 848 25.04 13.8 56.9 42 1 33.9
02:45 1018 30.06 848 25.04 13.8 56.9 43 1.4 34.5
02:50 1018 30.06 848 25.04 13.8 56.8 43 1.5 34.6
02:55 1018 30.06 847 25.01 13.8 56.8 43 1.5 34.6
03:00 1018 30.06 847 25.01 13.8 56.8 44 1.9 35.4
03:05 1018 30.06 847 25.01 13.4 56.1 46 2.1 35.8
03:10 1018 30.06 848 25.04 13.3 55.9 45 1.5 34.8
03:15 1018 30.06 848 25.04 13.6 56.5 44 1.6 34.9
03:20 1019 30.09 848 25.04 14.2 57.5 41 1 33.8
03:25 1019 30.09 848 25.04 14.2 57.5 42 1.5 34.8
03:30 1019 30.09 848 25.04 13.9 57 43 1.6 34.8
03:35 1019 30.09 848 25.04 13.8 56.9 43 1.6 34.9
03:40 1019 30.09 848 25.04 13.8 56.8 43 1.4 34.5
03:45 1019 30.09 848 25.04 13.6 56.5 45 2 35.6
03:50 1019 30.09 848 25.04 13 55.3 46 1.8 35.3
03:55 1019 30.09 848 25.04 12.9 55.3 44 1.1 34.1
04:00 1019 30.09 848 25.04 13.4 56.1 43 1.2 34.2
04:05 1019 30.09 848 25.04 13.5 56.3 43 1.1 34
04:10 1019 30.09 848 25.04 13.6 56.6 45 2 35.6
04:15 1019 30.09 848 25.04 13 55.4 44 1 33.9
04:20 1019 30.09 848 25.04 13.9 56.9 43 1.5 34.7
04:25 1019 30.09 848 25.04 13.2 55.7 48 2.5 36.5
04:30 1019 30.09 848 25.04 12.7 54.8 43 0.5 32.9
04:35 1019 30.09 848 25.04 13.5 56.3 43 1.2 34.2
04:40 1019 30.09 848 25.04 13.3 56 48 2.7 36.9
04:45 1019 30.09 848 25.04 12.1 53.8 52 2.5 36.5
04:50 1019 30.09 848 25.04 11.8 53.3 49 1.7 35
04:55 1019 30.09 848 25.04 12 53.5 50 2 35.6
05:00 1019 30.09 848 25.04 12 53.5 49 1.6 34.9
05:05 1019 30.09 848 25.04 12.2 53.9 48 1.6 34.9
05:10 1019 30.09 848 25.04 12.4 54.4 48 1.7 35
05:15 1019 30.09 848 25.04 12.5 54.6 45 1.1 34
05:20 1019 30.09 848 25.04 13.1 55.6 45 1.5 34.8
05:25 1019 30.09 848 25.04 12.8 55.1 46 1.7 35
05:30 1019 30.09 848 25.04 12.6 54.6 45 1.1 34
05:35 1019 30.09 848 25.04 12.8 55 44 1.1 33.9
05:40 1019 30.09 848 25.04 13.1 55.6 45 1.5 34.7
05:45 1019 30.09 848 25.04 12.8 55 48 2 35.6
05:50 1019 30.09 849 25.07 12.4 54.3 47 1.6 34.8
05:55 1019 30.09 849 25.07 12.3 54.1 50 2.1 35.9
06:00 1019 30.09 849 25.07 11.8 53.3 51 2.2 35.9
06:05 1019 30.09 849 25.07 11.8 53.2 50 1.9 35.4
06:10 1019 30.09 849 25.07 11.8 53.2 51 2.1 35.8
06:15 1019 30.09 849 25.07 11.9 53.4 51 2 35.7
06:20 1019 30.09 848 25.04 12.4 54.3 47 1.5 34.7
06:25 1019 30.09 848 25.04 12.6 54.6 48 1.9 35.5
06:30 1019 30.09 849 25.07 12.4 54.4 47 1.5 34.8
06:35 1019 30.09 849 25.07 13.1 55.6 44 1.3 34.3
06:40 1019 30.09 849 25.07 13.2 55.8 47 2.2 35.9
06:45 1020 30.12 849 25.07 13.2 55.8 45 1.6 34.9
06:50 1020 30.12 849 25.07 13.5 56.2 47 2.5 36.4
06:55 1020 30.12 849 25.07 13.3 56 46 2 35.6
07:00 1020 30.12 849 25.07 13.4 56.1 46 2.2 35.9
07:05 1020 30.12 849 25.07 13.1 55.6 50 3.1 37.5
07:10 1019 30.09 849 25.07 12.7 54.9 52 3.3 38
07:15 1019 30.09 848 25.04 12.9 55.2 48 2.2 36
07:20 1019 30.09 849 25.07 13.5 56.2 44 1.6 34.8
07:25 1020 30.12 849 25.07 14.1 57.3 45 2.4 36.3
07:30 1020 30.12 849 25.07 14.4 57.9 45 2.6 36.8
07:35 1020 30.12 849 25.07 14.5 58.1 44 2.6 36.7
07:40 1019 30.09 848 25.04 14.2 57.6 49 3.6 38.6
07:45 1020 30.12 849 25.07 14.3 57.8 49 3.8 38.8
07:50 1020 30.12 849 25.07 14.4 57.9 48 3.7 38.7
07:55 1019 30.09 849 25.07 14.6 58.3 48 3.8 38.8
08:00 1019 30.09 848 25.04 14.7 58.4 51 4.7 40.5
08:05 1019 30.09 849 25.07 14.4 57.8 52 4.7 40.5
08:10 1019 30.09 848 25.04 14.3 57.8 51 4.3 39.8
08:15 1019 30.09 849 25.07 14.6 58.4 49 4.3 39.7
08:20 1020 30.12 849 25.07 15.1 59.2 49 4.6 40.3
08:25 1019 30.09 849 25.07 15.2 59.4 50 5.1 41.1
08:30 1020 30.12 849 25.07 15.5 59.9 50 5.2 41.4
08:35 1020 30.12 849 25.07 16.2 61.2 46 4.8 40.6
08:40 1020 30.12 849 25.07 16.8 62.2 45 5 40.9
08:45 1020 30.12 849 25.07 17.6 63.7 39 3.7 38.6
08:50 1020 30.12 849 25.07 18.5 65.3 40 4.7 40.5
08:55 1020 30.12 849 25.07 19.1 66.4 37 4.4 39.9
09:00 1020 30.12 849 25.07 19.4 67 37 4.6 40.2
09:05 1020 30.12 849 25.07 18.4 65.2 43 5.8 42.4
09:10 1020 30.12 849 25.07 18.7 65.6 40 5.1 41.2
09:15 1020 30.12 849 25.07 19.5 67 39 5.2 41.4
09:20 1020 30.12 849 25.07 19.6 67.4 37 4.7 40.5
09:25 1020 30.12 849 25.07 19.6 67.3 40 5.6 42.1
09:30 1020 30.12 850 25.1 19.5 67.1 36 4.1 39.5
09:35 1020 30.12 850 25.1 20.2 68.3 37 5.1 41.1
09:40 1020 30.12 850 25.1 20.1 68.1 38 5.6 42
09:45 1021 30.15 850 25.1 19.5 67.2 40 5.6 42.1
09:50 1021 30.15 850 25.1 18.8 65.9 41 5.3 41.5
09:55 1021 30.15 850 25.1 18 64.4 42 5.1 41.2
10:00 1022 30.18 851 25.13 17.7 63.8 42 4.7 40.4
10:05 1022 30.18 851 25.13 17.7 63.8 40 4.2 39.5
10:10 1022 30.18 851 25.13 17.6 63.6 41 4.4 40
10:15 1022 30.18 851 25.13 17.7 63.8 39 3.5 38.3
10:20 1022 30.18 851 25.13 17.9 64.3 38 3.4 38.1
10:25 1021 30.15 851 25.13 18.6 65.5 37 3.7 38.6
10:30 1021 30.15 850 25.1 19 66.2 34 3 37.4
10:35 1021 30.15 850 25.1 18.4 65.1 37 3.7 38.7
10:40 1021 30.15 850 25.1 18.7 65.6 35 3.2 37.7
10:45 1021 30.15 850 25.1 19.4 66.9 34 3.3 37.9
10:50 1021 30.15 850 25.1 19.8 67.6 31 2.5 36.5
10:55 1021 30.15 850 25.1 20.4 68.8 31 2.7 36.9
11:00 1021 30.15 850 25.1 20 68.1 36 4.5 40.1
11:05 1021 30.15 850 25.1 19.4 67 33 2.7 36.8
11:10 1021 30.15 850 25.1 20.4 68.8 28 1.5 34.7
11:15 1021 30.15 851 25.13 20.9 69.6 28 1.9 35.5
11:20 1021 30.15 851 25.13 20.9 69.6 26 0.8 33.5
11:25 1021 30.15 851 25.13 20.3 68.6 30 2.3 36.1
11:30 1021 30.15 851 25.13 19.9 67.9 31 2.5 36.5
11:35 1021 30.15 851 25.13 19.9 67.8 34 3.7 38.6
11:40 1021 30.15 851 25.13 19.8 67.7 34 3.5 38.3
11:45 1021 30.15 850 25.1 20 68.1 38 5.6 42.1
11:50 1021 30.15 850 25.1 20.1 68.1 43 7.2 44.9
11:55 1021 30.15 850 25.1 20 68 40 6.2 43.2
12:00 1021 30.15 850 25.1 20.3 68.5 35 4.5 40
12:05 1021 30.15 850 25.1 21.7 71 33 4.9 40.8
12:10 1021 30.15 850 25.1 22.8 73 33 5.7 42.3
12:15 1021 30.15 850 25.1 22.3 72.1 34 5.8 42.5
12:20 1021 30.15 850 25.1 21.6 70.9 36 5.9 42.7
12:25 1020 30.12 850 25.1 21.9 71.4 35 6 42.8
12:30 1020 30.12 850 25.1 21.6 70.9 34 5.3 41.5
12:35 1020 30.12 850 25.1 21.2 70.2 36 5.6 42.2
12:40 1020 30.12 849 25.07 21.4 70.6 34 4.9 40.8
12:45 1020 30.12 849 25.07 21.3 70.4 30 3.1 37.6
12:50 1020 30.12 849 25.07 22 71.6 30 3.6 38.5
12:55 1020 30.12 849 25.07 22.7 72.8 28 3.7 38.6
13:00 1020 30.12 849 25.07 22.9 73.2 29 4.3 39.7
13:05 1020 30.12 849 25.07 23.3 73.9 29 4.3 39.8
13:10 1020 30.12 849 25.07 24.1 75.3 27 4.2 39.5
13:15 1020 30.12 849 25.07 24.4 75.9 27 4.5 40.1
13:20 1019 30.09 849 25.07 24.9 76.8 27 5.1 41.2
13:25 1019 30.09 848 25.04 25.1 77.2 28 5.3 41.6
13:30 1019 30.09 848 25.04 25.5 77.8 24 3.9 38.9
13:35 1019 30.09 848 25.04 25.5 78 25 4.6 40.2
13:40 1019 30.09 848 25.04 25.9 78.7 24 4.3 39.8
13:45 1019 30.09 848 25.04 26.2 79.2 25 4.6 40.3
13:50 1019 30.09 848 25.04 26.4 79.5 21 2.5 36.4
13:55 1019 30.09 848 25.04 26.7 80 21 2.7 36.9
14:00 1019 30.09 848 25.04 26.8 80.3 20 2.5 36.5
14:05 1019 30.09 848 25.04 26.8 80.3 23 4 39.2
14:10 1019 30.09 848 25.04 26.9 80.4 23 4.1 39.5
14:15 1019 30.09 848 25.04 27 80.6 24 4.8 40.7
14:20 1019 30.09 848 25.04 27.3 81.1 25 5.9 42.6
14:25 1019 30.09 848 25.04 27.4 81.3 24 5.4 41.7
14:30 1018 30.06 848 25.04 27.3 81.1 23 4.4 39.9
14:35 1018 30.06 848 25.04 27 80.7 24 5 41
14:40 1018 30.06 848 25.04 27.3 81.1 23 4.9 40.9
14:45 1018 30.06 847 25.01 27.2 81 23 4.8 40.7
14:50 1018 30.06 847 25.01 27.6 81.6 21 3.8 38.9
14:55 1018 30.06 847 25.01 28 82.4 22 4.7 40.4
15:00 1018 30.06 847 25.01 27.9 82.3 22 4.4 39.9
15:05 1018 30.06 847 25.01 27.9 82.3 23 5 41.1
15:10 1018 30.06 847 25.01 28.3 82.9 21 4.1 39.4
15:15 1018 30.06 847 25.01 27.8 82.1 22 4.6 40.4
15:20 1018 30.06 847 25.01 27.5 81.5 23 4.6 40.3
15:25 1018 30.06 847 25.01 27.3 81.1 23 4.5 40.1
15:30 1018 30.06 847 25.01 27.2 80.9 22 4.1 39.3
15:35 1018 30.06 847 25.01 26.7 80 23 4.2 39.5
15:40 1018 30.06 847 25.01 26.4 79.5 23 3.8 38.8
15:45 1018 30.06 847 25.01 26.8 80.2 22 3.8 38.9
15:50 1018 30.06 847 25.01 26.9 80.5 23 4.1 39.4
15:55 1018 30.06 847 25.01 27.2 81 22 4 39.2
16:00 1018 30.06 847 25.01 27.2 81 22 3.7 38.7
16:05 1018 30.06 847 25.01 27.4 81.3 22 3.8 38.8
16:10 1018 30.06 847 25.01 27.6 81.6 22 4 39.2
16:15 1018 30.06 847 25.01 27.5 81.5 21 3.5 38.2
16:20 1018 30.06 847 25.01 27.3 81.1 22 3.7 38.7
16:25 1018 30.06 847 25.01 27.3 81.1 22 3.7 38.6
16:30 1018 30.06 847 25.01 27.4 81.3 22 4.2 39.6
16:35 1018 30.06 847 25.01 27.5 81.6 22 4.4 39.9
16:40 1018 30.06 847 25.01 27.4 81.4 23 4.5 40.1
16:45 1018 30.06 847 25.01 27.7 81.9 23 4.8 40.6
16:50 1018 30.06 847 25.01 28 82.3 22 4.6 40.3
16:55 1018 30.06 847 25.01 28.1 82.6 22 4.8 40.7
17:00 1018 30.06 847 25.01 28.1 82.5 22 4.5 40.2
17:05 1017 30.03 847 25.01 28 82.4 22 4.9 40.8
17:10 1017 30.03 847 25.01 28.4 83.1 22 4.9 40.8
17:15 1017 30.03 847 25.01 28.7 83.7 22 5.3 41.5
17:20 1017 30.03 847 25.01 28.7 83.7 22 5.3 41.5
17:25 1017 30.03 846 24.98 29.2 84.6 21 4.7 40.5
17:30 1017 30.03 846 24.98 29 84.1 22 5.2 41.4
17:35 1017 30.03 846 24.98 29.2 84.5 20 4.1 39.3
17:40 1017 30.03 846 24.98 29.1 84.4 21 4.6 40.3
17:45 1017 30.03 846 24.98 29.2 84.6 20 4.1 39.4
17:50 1017 30.03 846 24.98 29.5 85 21 5 41
17:55 1017 30.03 846 24.98 29.6 85.3 20 4.9 40.8
18:00 1017 30.03 846 24.98 29.2 84.6 20 4.5 40.1
18:05 1017 30.03 846 24.98 29.1 84.4 21 4.8 40.6
18:10 1017 30.03 846 24.98 29.4 84.9 20 4.6 40.2
18:15 1017 30.03 846 24.98 29.5 85.1 20 4.8 40.6
18:20 1017 30.03 846 24.98 29.5 85 20 4.6 40.3
18:25 1017 30.03 846 24.98 29.5 85 21 4.9 40.9
18:30 1017 30.03 846 24.98 29.3 84.7 21 4.8 40.7
18:35 1017 30.03 846 24.98 29.1 84.3 21 5.1 41.2
18:40 1017 30.03 846 24.98 29 84.3 20 4.2 39.6
18:45 1017 30.03 846 24.98 29 84.2 20 4.3 39.7
18:50 1017 30.03 846 24.98 29 84.2 21 4.8 40.6
18:55 1017 30.03 846 24.98 29.1 84.4 22 5.2 41.4
19:00 1017 30.03 846 24.98 29.1 84.4 22 5.8 42.4
19:05 1017 30.03 846 24.98 28.6 83.6 23 6.1 42.9
19:10 1017 30.03 846 24.98 28.3 82.9 22 5.1 41.2
19:15 1017 30.03 846 24.98 28 82.4 24 5.8 42.5
19:20 1017 30.03 846 24.98 27.9 82.2 25 6.4 43.6
19:25 1017 30.03 846 24.98 27.5 81.4 26 6.8 44.2
19:30 1017 30.03 846 24.98 27.2 80.9 26 6.3 43.3
19:35 1017 30.03 846 24.98 26.8 80.3 27 6.6 43.8
19:40 1017 30.03 846 24.98 26.7 80 27 6.3 43.3
19:45 1017 30.03 846 24.98 26.5 79.6 26 5.6 42.1
19:50 1017 30.03 846 24.98 26.4 79.4 25 4.8 40.6
19:55 1017 30.03 846 24.98 26.3 79.3 25 4.7 40.5
20:00 1017 30.03 846 24.98 26.2 79.1 25 4.7 40.5
20:05 1017 30.03 846 24.98 26.1 78.9 26 5.1 41.1
20:10 1017 30.03 846 24.98 25.8 78.5 25 4.7 40.5
20:15 1017 30.03 846 24.98 25.7 78.2 25 4.5 40.1
20:20 1017 30.03 846 24.98 25.5 78 26 4.7 40.5
20:25 1017 30.03 846 24.98 25.4 77.7 26 4.5 40.1
20:30 1017 30.03 846 24.98 25.3 77.5 26 4.7 40.5
20:35 1017 30.03 846 24.98 25.1 77.3 27 5 41
20:40 1017 30.03 846 24.98 25 77 27 4.9 40.8
20:45 1017 30.03 846 24.98 24.8 76.7 27 5 41
20:50 1017 30.03 846 24.98 24.7 76.4 28 5 41
20:55 1017 30.03 846 24.98 24.7 76.4 28 5 41
21:00 1017 30.03 846 24.98 24.5 76.1 28 5.1 41.2
21:05 1017 30.03 846 24.98 24.2 75.6 29 5.4 41.7
21:10 1017 30.03 846 24.98 24 75.1 29 5.3 41.5
21:15 1017 30.03 846 24.98 23.8 74.8 30 5.3 41.6
21:20 1017 30.03 846 24.98 23.6 74.5 30 5.3 41.5
21:25 1017 30.03 846 24.98 23.6 74.5 30 5.4 41.6
21:30 1017 30.03 846 24.98 23.5 74.3 30 5.4 41.7
21:35 1017 30.03 846 24.98 23.6 74.4 31 5.5 41.8
21:40 1017 30.03 846 24.98 23.4 74.2 31 5.4 41.8
21:45 1017 30.03 846 24.98 23.1 73.7 32 5.6 42.1
21:50 1017 30.03 846 24.98 23 73.4 32 5.5 42
21:55 1017 30.03 846 24.98 23 73.3 32 5.7 42.3
22:00 1017 30.03 847 25.01 22.9 73.2 32 5.6 42.1
22:05 1017 30.03 847 25.01 22.9 73.1 33 5.8 42.5
22:10 1017 30.03 847 25.01 22.8 73 33 5.8 42.5
22:15 1017 30.03 847 25.01 22.6 72.6 34 6 42.7
22:20 1017 30.03 847 25.01 22.3 72.1 34 6 42.8
22:25 1018 30.06 847 25.01 22 71.6 35 6.2 43.2
22:30 1018 30.06 847 25.01 21.9 71.3 36 6.1 43
22:35 1018 30.06 847 25.01 21.9 71.5 34 5.7 42.3
22:40 1018 30.06 847 25.01 22.2 71.9 34 5.6 42.1
22:45 1018 30.06 847 25.01 22.3 72.2 34 6 42.8
22:50 1018 30.06 847 25.01 22.1 71.8 35 6.1 42.9
22:55 1018 30.06 847 25.01 22 71.7 35 6 42.9
23:00 1018 30.06 847 25.01 22 71.5 36 6.3 43.3
23:05 1018 30.06 847 25.01 21.8 71.2 35 5.9 42.6
23:10 1018 30.06 847 25.01 22 71.6 35 6.1 43
23:15 1018 30.06 847 25.01 21.7 71.1 35 6 42.7
23:20 1018 30.06 847 25.01 21.6 70.8 35 5.7 42.3
23:25 1018 30.06 847 25.01 21.6 71 35 5.9 42.6
23:30 1018 30.06 847 25.01 21.5 70.7 35 5.7 42.3
23:35 1018 30.06 847 25.01 21.5 70.8 35 5.6 42.1
23:40 1018 30.06 847 25.01 21.5 70.7 35 5.7 42.2
23:45 1018 30.06 847 25.01 21.7 71 34 5.1 41.2
23:50 1018 30.06 847 25.01 21.6 70.9 34 5.4 41.8
23:55 1018 30.06 847 25.01 21.4 70.5 34 5 41.1
24:00 1018 30.06 847 25.01 21.5 70.8 34 5.1 41.2